sensor_id;sensor_type;location;lat;lon;timestamp;pressure;altitude;pressure_sealevel;temperature;humidity
5053;BME280;2545;50.892;5.740;2023-04-09T00:00:23;56217.97;;;-142.21;100.00
5053;BME280;2545;50.892;5.740;2023-04-09T00:02:49;56255.22;;;-142.21;100.00
5053;BME280;2545;50.892;5.740;2023-04-09T00:05:14;56239.56;;;-142.21;100.00
5053;BME280;2545;50.892;5.740;2023-04-09T00:07:39;56253.28;;;-142.21;100.00
5053;BME280;2545;50.892;5.740;2023-04-09T00:10:05;56259.16;;;-142.21;100.00
5053;BME280;2545;50.892;5.740;2023-04-09T00:12:31;56231.72;;;-142.21;100.00
5053;BME280;2545;50.892;5.740;2023-04-09T00:14:56;56263.06;;;-142.21;100.00
5053;BME280;2545;50.892;5.740;2023-04-09T00:17:21;56259.16;;;-142.21;100.00
5053;BME280;2545;50.892;5.740;2023-04-09T00:19:47;56265.03;;;-142.21;100.00
5053;BME280;2545;50.892;5.740;2023-04-09T00:22:12;56233.66;;;-142.21;100.00
5053;BME280;2545;50.892;5.740;2023-04-09T00:24:39;56257.19;;;-142.21;100.00
5053;BME280;2545;50.892;5.740;2023-04-09T00:27:04;56245.44;;;-142.21;100.00
5053;BME280;2545;50.892;5.740;2023-04-09T00:29:29;56268.97;;;-142.21;100.00
5053;BME280;2545;50.892;5.740;2023-04-09T00:31:55;56247.38;;;-142.21;100.00
5053;BME280;2545;50.892;5.740;2023-04-09T00:34:20;56253.28;;;-142.21;100.00
5053;BME280;2545;50.892;5.740;2023-04-09T00:36:46;56251.31;;;-142.21;100.00
5053;BME280;2545;50.892;5.740;2023-04-09T00:39:11;56214.06;;;-142.21;100.00
5053;BME280;2545;50.892;5.740;2023-04-09T00:41:36;56241.50;;;-142.21;100.00
5053;BME280;2545;50.892;5.740;2023-04-09T00:44:02;56212.09;;;-142.21;100.00
5053;BME280;2545;50.892;5.740;2023-04-09T00:46:27;56229.75;;;-142.21;100.00
5053;BME280;2545;50.892;5.740;2023-04-09T00:48:52;56251.31;;;-142.21;100.00
5053;BME280;2545;50.892;5.740;2023-04-09T00:51:18;56257.19;;;-142.21;100.00
5053;BME280;2545;50.892;5.740;2023-04-09T00:53:43;56229.75;;;-142.21;100.00
5053;BME280;2545;50.892;5.740;2023-04-09T00:56:11;56210.13;;;-142.21;100.00
5053;BME280;2545;50.892;5.740;2023-04-09T00:58:39;56196.41;;;-142.21;100.00
5053;BME280;2545;50.892;5.740;2023-04-09T01:01:05;56231.72;;;-142.21;100.00
5053;BME280;2545;50.892;5.740;2023-04-09T01:03:31;56255.22;;;-142.21;100.00
5053;BME280;2545;50.892;5.740;2023-04-09T01:06:26;56265.03;;;-142.21;100.00
5053;BME280;2545;50.892;5.740;2023-04-09T01:09:05;56259.16;;;-142.21;100.00
5053;BME280;2545;50.892;5.740;2023-04-09T01:11:40;56257.19;;;-142.21;100.00
5053;BME280;2545;50.892;5.740;2023-04-09T01:14:17;56245.44;;;-142.21;100.00
5053;BME280;2545;50.892;5.740;2023-04-09T01:16:48;56257.19;;;-142.21;100.00
5053;BME280;2545;50.892;5.740;2023-04-09T01:22:28;56241.50;;;-142.21;100.00
5053;BME280;2545;50.892;5.740;2023-04-09T01:27:53;56233.66;;;-142.21;100.00
5053;BME280;2545;50.892;5.740;2023-04-09T01:30:22;56261.13;;;-142.21;100.00
5053;BME280;2545;50.892;5.740;2023-04-09T01:32:49;56274.84;;;-142.21;100.00
5053;BME280;2545;50.892;5.740;2023-04-09T01:35:17;56235.63;;;-142.21;100.00
5053;BME280;2545;50.892;5.740;2023-04-09T01:37:43;56229.75;;;-142.21;100.00
5053;BME280;2545;50.892;5.740;2023-04-09T01:40:09;56249.34;;;-142.21;100.00
5053;BME280;2545;50.892;5.740;2023-04-09T01:42:35;56253.28;;;-142.21;100.00
5053;BME280;2545;50.892;5.740;2023-04-09T01:45:02;56243.47;;;-142.21;100.00
5053;BME280;2545;50.892;5.740;2023-04-09T01:47:28;56261.13;;;-142.21;100.00
5053;BME280;2545;50.892;5.740;2023-04-09T01:49:54;56212.09;;;-142.21;100.00
5053;BME280;2545;50.892;5.740;2023-04-09T01:52:20;56229.75;;;-142.21;100.00
5053;BME280;2545;50.892;5.740;2023-04-09T01:54:45;56233.66;;;-142.21;100.00
5053;BME280;2545;50.892;5.740;2023-04-09T01:57:11;56267.00;;;-142.21;100.00
5053;BME280;2545;50.892;5.740;2023-04-09T01:59:36;56251.31;;;-142.21;100.00
5053;BME280;2545;50.892;5.740;2023-04-09T02:02:11;56210.13;;;-142.21;100.00
5053;BME280;2545;50.892;5.740;2023-04-09T02:04:43;56251.31;;;-142.21;100.00
5053;BME280;2545;50.892;5.740;2023-04-09T02:07:28;56276.81;;;-142.21;100.00
5053;BME280;2545;50.892;5.740;2023-04-09T02:09:58;56261.13;;;-142.21;100.00
5053;BME280;2545;50.892;5.740;2023-04-09T02:12:25;56268.97;;;-142.21;100.00
5053;BME280;2545;50.892;5.740;2023-04-09T02:14:51;56253.28;;;-142.21;100.00
5053;BME280;2545;50.892;5.740;2023-04-09T02:17:18;56216.00;;;-142.21;100.00
5053;BME280;2545;50.892;5.740;2023-04-09T02:19:45;56251.31;;;-142.21;100.00
5053;BME280;2545;50.892;5.740;2023-04-09T02:22:11;56255.22;;;-142.21;100.00
5053;BME280;2545;50.892;5.740;2023-04-09T02:24:37;56270.91;;;-142.21;100.00
5053;BME280;2545;50.892;5.740;2023-04-09T02:27:03;56243.47;;;-142.21;100.00
5053;BME280;2545;50.892;5.740;2023-04-09T02:29:29;56229.75;;;-142.21;100.00
5053;BME280;2545;50.892;5.740;2023-04-09T02:31:55;56265.03;;;-142.21;100.00
5053;BME280;2545;50.892;5.740;2023-04-09T02:34:21;56229.75;;;-142.21;100.00
5053;BME280;2545;50.892;5.740;2023-04-09T02:36:47;56261.13;;;-142.21;100.00
5053;BME280;2545;50.892;5.740;2023-04-09T02:39:12;56280.72;;;-142.21;100.00
5053;BME280;2545;50.892;5.740;2023-04-09T02:41:38;56243.47;;;-142.21;100.00
5053;BME280;2545;50.892;5.740;2023-04-09T02:44:03;56227.78;;;-142.21;100.00
5053;BME280;2545;50.892;5.740;2023-04-09T02:46:29;56257.19;;;-142.21;100.00
5053;BME280;2545;50.892;5.740;2023-04-09T02:48:54;56263.06;;;-142.21;100.00
5053;BME280;2545;50.892;5.740;2023-04-09T02:51:19;56286.63;;;-142.21;100.00
5053;BME280;2545;50.892;5.740;2023-04-09T02:53:45;56231.72;;;-142.21;100.00
5053;BME280;2545;50.892;5.740;2023-04-09T02:56:10;56239.56;;;-142.21;100.00
5053;BME280;2545;50.892;5.740;2023-04-09T02:58:35;56294.47;;;-142.21;100.00
5053;BME280;2545;50.892;5.740;2023-04-09T03:01:01;56241.50;;;-142.21;100.00
5053;BME280;2545;50.892;5.740;2023-04-09T03:03:27;56233.66;;;-142.21;100.00
5053;BME280;2545;50.892;5.740;2023-04-09T03:05:52;56249.34;;;-142.21;100.00
5053;BME280;2545;50.892;5.740;2023-04-09T03:08:18;56237.59;;;-142.21;100.00
5053;BME280;2545;50.892;5.740;2023-04-09T03:10:43;56237.59;;;-142.21;100.00
5053;BME280;2545;50.892;5.740;2023-04-09T03:13:08;56217.97;;;-142.21;100.00
5053;BME280;2545;50.892;5.740;2023-04-09T03:15:34;56253.28;;;-142.21;100.00
5053;BME280;2545;50.892;5.740;2023-04-09T03:17:59;56257.19;;;-142.21;100.00
5053;BME280;2545;50.892;5.740;2023-04-09T03:20:25;56282.69;;;-142.21;100.00
5053;BME280;2545;50.892;5.740;2023-04-09T03:22:50;56241.50;;;-142.21;100.00
5053;BME280;2545;50.892;5.740;2023-04-09T03:25:15;56227.78;;;-142.21;100.00
5053;BME280;2545;50.892;5.740;2023-04-09T03:27:43;56233.66;;;-142.21;100.00
5053;BME280;2545;50.892;5.740;2023-04-09T03:30:09;56237.59;;;-142.21;100.00
5053;BME280;2545;50.892;5.740;2023-04-09T03:32:34;56249.34;;;-142.21;100.00
5053;BME280;2545;50.892;5.740;2023-04-09T03:34:59;56261.13;;;-142.21;100.00
5053;BME280;2545;50.892;5.740;2023-04-09T03:37:25;56219.94;;;-142.21;100.00
5053;BME280;2545;50.892;5.740;2023-04-09T03:39:50;56239.56;;;-142.21;100.00
5053;BME280;2545;50.892;5.740;2023-04-09T03:42:15;56235.63;;;-142.21;100.00
5053;BME280;2545;50.892;5.740;2023-04-09T03:44:41;56288.56;;;-142.21;100.00
5053;BME280;2545;50.892;5.740;2023-04-09T03:47:06;56245.44;;;-142.21;100.00
5053;BME280;2545;50.892;5.740;2023-04-09T03:49:34;56253.28;;;-142.21;100.00
5053;BME280;2545;50.892;5.740;2023-04-09T03:52:00;56251.31;;;-142.21;100.00
5053;BME280;2545;50.892;5.740;2023-04-09T03:54:30;56255.22;;;-142.21;100.00
5053;BME280;2545;50.892;5.740;2023-04-09T03:56:56;56249.34;;;-142.21;100.00
5053;BME280;2545;50.892;5.740;2023-04-09T03:59:22;56245.44;;;-142.21;100.00
5053;BME280;2545;50.892;5.740;2023-04-09T04:01:47;56255.22;;;-142.21;100.00
5053;BME280;2545;50.892;5.740;2023-04-09T04:04:13;56245.44;;;-142.21;100.00
5053;BME280;2545;50.892;5.740;2023-04-09T04:06:38;56263.06;;;-142.21;100.00
5053;BME280;2545;50.892;5.740;2023-04-09T04:09:03;56239.56;;;-142.21;100.00
5053;BME280;2545;50.892;5.740;2023-04-09T04:11:29;56235.63;;;-142.21;100.00
5053;BME280;2545;50.892;5.740;2023-04-09T04:13:54;56206.22;;;-142.21;100.00
5053;BME280;2545;50.892;5.740;2023-04-09T04:16:20;56243.47;;;-142.21;100.00
5053;BME280;2545;50.892;5.740;2023-04-09T04:18:45;56249.34;;;-142.21;100.00
5053;BME280;2545;50.892;5.740;2023-04-09T04:21:14;56263.06;;;-142.21;100.00
5053;BME280;2545;50.892;5.740;2023-04-09T04:23:39;56257.19;;;-142.21;100.00
5053;BME280;2545;50.892;5.740;2023-04-09T04:26:08;56245.44;;;-142.21;100.00
5053;BME280;2545;50.892;5.740;2023-04-09T04:28:34;56251.31;;;-142.21;100.00
5053;BME280;2545;50.892;5.740;2023-04-09T04:31:00;56233.66;;;-142.21;100.00
5053;BME280;2545;50.892;5.740;2023-04-09T04:33:26;56267.00;;;-142.21;100.00
5053;BME280;2545;50.892;5.740;2023-04-09T04:35:51;56255.22;;;-142.21;100.00
5053;BME280;2545;50.892;5.740;2023-04-09T04:38:16;56249.34;;;-142.21;100.00
5053;BME280;2545;50.892;5.740;2023-04-09T04:40:42;56217.97;;;-142.21;100.00
5053;BME280;2545;50.892;5.740;2023-04-09T04:43:07;56241.50;;;-142.21;100.00
5053;BME280;2545;50.892;5.740;2023-04-09T04:45:32;56267.00;;;-142.21;100.00
5053;BME280;2545;50.892;5.740;2023-04-09T04:47:58;56265.03;;;-142.21;100.00
5053;BME280;2545;50.892;5.740;2023-04-09T04:50:23;56257.19;;;-142.21;100.00
5053;BME280;2545;50.892;5.740;2023-04-09T04:52:49;56221.91;;;-142.21;100.00
5053;BME280;2545;50.892;5.740;2023-04-09T04:55:14;56235.63;;;-142.21;100.00
5053;BME280;2545;50.892;5.740;2023-04-09T04:57:39;56239.56;;;-142.21;100.00
5053;BME280;2545;50.892;5.740;2023-04-09T05:00:05;56233.66;;;-142.21;100.00
5053;BME280;2545;50.892;5.740;2023-04-09T05:02:31;56214.06;;;-142.21;100.00
5053;BME280;2545;50.892;5.740;2023-04-09T05:04:56;56253.28;;;-142.21;100.00
5053;BME280;2545;50.892;5.740;2023-04-09T05:07:22;56192.50;;;-142.21;100.00
5053;BME280;2545;50.892;5.740;2023-04-09T05:09:47;56272.88;;;-142.21;100.00
5053;BME280;2545;50.892;5.740;2023-04-09T05:12:13;56245.44;;;-142.21;100.00
5053;BME280;2545;50.892;5.740;2023-04-09T05:14:39;56304.25;;;-142.21;100.00
5053;BME280;2545;50.892;5.740;2023-04-09T05:17:04;56237.59;;;-142.21;100.00
5053;BME280;2545;50.892;5.740;2023-04-09T05:19:30;56251.31;;;-142.21;100.00
5053;BME280;2545;50.892;5.740;2023-04-09T05:21:55;56225.81;;;-142.21;100.00
5053;BME280;2545;50.892;5.740;2023-04-09T05:24:21;56212.09;;;-142.21;100.00
5053;BME280;2545;50.892;5.740;2023-04-09T05:26:46;56239.56;;;-142.21;100.00
5053;BME280;2545;50.892;5.740;2023-04-09T05:29:11;56219.94;;;-142.21;100.00
5053;BME280;2545;50.892;5.740;2023-04-09T05:31:37;56241.50;;;-142.21;100.00
5053;BME280;2545;50.892;5.740;2023-04-09T05:34:04;56257.19;;;-142.21;100.00
5053;BME280;2545;50.892;5.740;2023-04-09T05:36:30;56239.56;;;-142.21;100.00
5053;BME280;2545;50.892;5.740;2023-04-09T05:38:56;56208.16;;;-142.21;100.00
5053;BME280;2545;50.892;5.740;2023-04-09T05:41:21;56259.16;;;-142.21;100.00
5053;BME280;2545;50.892;5.740;2023-04-09T05:43:46;56255.22;;;-142.21;100.00
5053;BME280;2545;50.892;5.740;2023-04-09T05:46:12;56265.03;;;-142.21;100.00
5053;BME280;2545;50.892;5.740;2023-04-09T05:48:37;56265.03;;;-142.21;100.00
5053;BME280;2545;50.892;5.740;2023-04-09T05:51:02;56235.63;;;-142.21;100.00
5053;BME280;2545;50.892;5.740;2023-04-09T05:53:28;56247.38;;;-142.21;100.00
5053;BME280;2545;50.892;5.740;2023-04-09T05:55:55;56229.75;;;-142.21;100.00
5053;BME280;2545;50.892;5.740;2023-04-09T05:58:20;56290.53;;;-142.21;100.00
5053;BME280;2545;50.892;5.740;2023-04-09T06:00:46;56249.34;;;-142.21;100.00
5053;BME280;2545;50.892;5.740;2023-04-09T06:03:11;56241.50;;;-142.21;100.00
5053;BME280;2545;50.892;5.740;2023-04-09T06:05:37;56274.84;;;-142.21;100.00
5053;BME280;2545;50.892;5.740;2023-04-09T06:08:02;56237.59;;;-142.21;100.00
5053;BME280;2545;50.892;5.740;2023-04-09T06:10:27;56229.75;;;-142.21;100.00
5053;BME280;2545;50.892;5.740;2023-04-09T06:12:53;56249.34;;;-142.21;100.00
5053;BME280;2545;50.892;5.740;2023-04-09T06:15:19;56190.53;;;-142.21;100.00
5053;BME280;2545;50.892;5.740;2023-04-09T06:17:45;56257.19;;;-142.21;100.00
5053;BME280;2545;50.892;5.740;2023-04-09T06:20:10;56210.13;;;-142.21;100.00
5053;BME280;2545;50.892;5.740;2023-04-09T06:22:36;56265.03;;;-142.21;100.00
5053;BME280;2545;50.892;5.740;2023-04-09T06:25:02;56237.59;;;-142.21;100.00
5053;BME280;2545;50.892;5.740;2023-04-09T06:27:27;56280.72;;;-142.21;100.00
5053;BME280;2545;50.892;5.740;2023-04-09T06:29:52;56259.16;;;-142.21;100.00
5053;BME280;2545;50.892;5.740;2023-04-09T06:32:18;56225.81;;;-142.21;100.00
5053;BME280;2545;50.892;5.740;2023-04-09T06:34:43;56272.88;;;-142.21;100.00
5053;BME280;2545;50.892;5.740;2023-04-09T06:37:08;56272.88;;;-142.21;100.00
5053;BME280;2545;50.892;5.740;2023-04-09T06:39:34;56237.59;;;-142.21;100.00
5053;BME280;2545;50.892;5.740;2023-04-09T06:41:59;56284.66;;;-142.21;100.00
5053;BME280;2545;50.892;5.740;2023-04-09T06:44:25;56241.50;;;-142.21;100.00
5053;BME280;2545;50.892;5.740;2023-04-09T06:46:50;56253.28;;;-142.21;100.00
5053;BME280;2545;50.892;5.740;2023-04-09T06:49:15;56253.28;;;-142.21;100.00
5053;BME280;2545;50.892;5.740;2023-04-09T06:51:41;56267.00;;;-142.21;100.00
5053;BME280;2545;50.892;5.740;2023-04-09T06:54:06;56253.28;;;-142.21;100.00
5053;BME280;2545;50.892;5.740;2023-04-09T06:56:32;56282.69;;;-142.21;100.00
5053;BME280;2545;50.892;5.740;2023-04-09T06:58:58;56253.28;;;-142.21;100.00
5053;BME280;2545;50.892;5.740;2023-04-09T07:01:23;56235.63;;;-142.21;100.00
5053;BME280;2545;50.892;5.740;2023-04-09T07:03:49;56253.28;;;-142.21;100.00
5053;BME280;2545;50.892;5.740;2023-04-09T07:06:15;56249.34;;;-142.21;100.00
5053;BME280;2545;50.892;5.740;2023-04-09T07:08:40;56251.31;;;-142.21;100.00
5053;BME280;2545;50.892;5.740;2023-04-09T07:11:05;56280.72;;;-142.21;100.00
5053;BME280;2545;50.892;5.740;2023-04-09T07:13:31;56265.03;;;-142.21;100.00
5053;BME280;2545;50.892;5.740;2023-04-09T07:15:57;56270.91;;;-142.21;100.00
5053;BME280;2545;50.892;5.740;2023-04-09T07:18:22;56249.34;;;-142.21;100.00
5053;BME280;2545;50.892;5.740;2023-04-09T07:20:47;56270.91;;;-142.21;100.00
5053;BME280;2545;50.892;5.740;2023-04-09T07:23:13;56261.13;;;-142.21;100.00
5053;BME280;2545;50.892;5.740;2023-04-09T07:25:38;56257.19;;;-142.21;100.00
5053;BME280;2545;50.892;5.740;2023-04-09T07:28:03;56274.84;;;-142.21;100.00
5053;BME280;2545;50.892;5.740;2023-04-09T07:30:28;56223.84;;;-142.21;100.00
5053;BME280;2545;50.892;5.740;2023-04-09T07:32:54;56265.03;;;-142.21;100.00
5053;BME280;2545;50.892;5.740;2023-04-09T07:35:20;56296.41;;;-142.21;100.00
5053;BME280;2545;50.892;5.740;2023-04-09T07:37:45;56214.06;;;-142.21;100.00
5053;BME280;2545;50.892;5.740;2023-04-09T07:40:11;56276.81;;;-142.21;100.00
5053;BME280;2545;50.892;5.740;2023-04-09T07:42:37;56239.56;;;-142.21;100.00
5053;BME280;2545;50.892;5.740;2023-04-09T07:45:03;56217.97;;;-142.21;100.00
5053;BME280;2545;50.892;5.740;2023-04-09T07:47:29;56251.31;;;-142.21;100.00
5053;BME280;2545;50.892;5.740;2023-04-09T07:49:54;56257.19;;;-142.21;98.96
5053;BME280;2545;50.892;5.740;2023-04-09T07:52:19;56239.56;;;-142.21;97.60
5053;BME280;2545;50.892;5.740;2023-04-09T07:54:45;56237.59;;;-142.21;93.01
5053;BME280;2545;50.892;5.740;2023-04-09T07:57:10;56210.13;;;-142.21;93.31
5053;BME280;2545;50.892;5.740;2023-04-09T07:59:35;56241.50;;;-142.21;92.01
5053;BME280;2545;50.892;5.740;2023-04-09T08:02:01;56241.50;;;-142.21;89.22
5053;BME280;2545;50.892;5.740;2023-04-09T08:04:26;56217.97;;;-142.21;86.85
5053;BME280;2545;50.892;5.740;2023-04-09T08:06:52;56245.44;;;-142.21;86.33
5053;BME280;2545;50.892;5.740;2023-04-09T08:09:18;56253.28;;;-142.21;84.09
5053;BME280;2545;50.892;5.740;2023-04-09T08:11:45;56219.94;;;-142.21;84.14
5053;BME280;2545;50.892;5.740;2023-04-09T08:14:11;56272.88;;;-142.21;83.31
5053;BME280;2545;50.892;5.740;2023-04-09T08:16:38;56217.97;;;-142.21;80.89
5053;BME280;2545;50.892;5.740;2023-04-09T08:19:04;56243.47;;;-142.21;80.27
5053;BME280;2545;50.892;5.740;2023-04-09T08:21:30;56229.75;;;-142.21;80.87
5053;BME280;2545;50.892;5.740;2023-04-09T08:23:56;56237.59;;;-142.21;80.58
5053;BME280;2545;50.892;5.740;2023-04-09T08:26:25;56245.44;;;-142.21;79.90
5053;BME280;2545;50.892;5.740;2023-04-09T08:28:50;56186.59;;;-142.21;79.46
5053;BME280;2545;50.892;5.740;2023-04-09T08:31:16;56245.44;;;-142.21;80.07
5053;BME280;2545;50.892;5.740;2023-04-09T08:33:41;56247.38;;;-142.21;79.63
5053;BME280;2545;50.892;5.740;2023-04-09T08:36:07;56245.44;;;-142.21;78.64
5053;BME280;2545;50.892;5.740;2023-04-09T08:38:33;56237.59;;;-142.21;78.52
5053;BME280;2545;50.892;5.740;2023-04-09T08:40:58;56259.16;;;-142.21;78.25
5053;BME280;2545;50.892;5.740;2023-04-09T08:43:25;56241.50;;;-142.21;77.32
5053;BME280;2545;50.892;5.740;2023-04-09T08:45:51;56212.09;;;-142.21;74.59
5053;BME280;2545;50.892;5.740;2023-04-09T08:48:18;56214.06;;;-142.21;73.83
5053;BME280;2545;50.892;5.740;2023-04-09T08:50:45;56182.69;;;-142.21;72.56
5053;BME280;2545;50.892;5.740;2023-04-09T08:53:11;56217.97;;;-142.21;71.47
5053;BME280;2545;50.892;5.740;2023-04-09T08:55:37;56202.28;;;-142.21;70.62
5053;BME280;2545;50.892;5.740;2023-04-09T08:58:05;56198.38;;;-142.21;68.86
5053;BME280;2545;50.892;5.740;2023-04-09T09:00:37;56180.72;;;-142.21;68.06
5053;BME280;2545;50.892;5.740;2023-04-09T09:03:08;56212.09;;;-142.21;67.65
5053;BME280;2545;50.892;5.740;2023-04-09T09:05:41;56239.56;;;-142.21;66.25
5053;BME280;2545;50.892;5.740;2023-04-09T09:08:08;56190.53;;;-142.21;65.82
5053;BME280;2545;50.892;5.740;2023-04-09T09:10:42;56182.69;;;-142.21;65.19
5053;BME280;2545;50.892;5.740;2023-04-09T09:13:24;56225.81;;;-142.21;62.74
5053;BME280;2545;50.892;5.740;2023-04-09T09:15:51;56188.56;;;-142.21;62.38
5053;BME280;2545;50.892;5.740;2023-04-09T09:18:40;56168.97;;;-142.21;61.49
5053;BME280;2545;50.892;5.740;2023-04-09T09:21:16;56217.97;;;-142.21;61.35
5053;BME280;2545;50.892;5.740;2023-04-09T09:23:42;56200.34;;;-142.21;62.27
5053;BME280;2545;50.892;5.740;2023-04-09T09:26:15;56200.34;;;-142.21;62.08
5053;BME280;2545;50.892;5.740;2023-04-09T09:28:46;56194.44;;;-142.21;61.89
5053;BME280;2545;50.892;5.740;2023-04-09T09:31:13;56172.88;;;-142.21;61.07
5053;BME280;2545;50.892;5.740;2023-04-09T09:33:38;56172.88;;;-142.21;59.82
5053;BME280;2545;50.892;5.740;2023-04-09T09:36:04;56192.50;;;-142.21;60.41
5053;BME280;2545;50.892;5.740;2023-04-09T09:38:30;56188.56;;;-142.21;60.45
5053;BME280;2545;50.892;5.740;2023-04-09T09:40:56;56186.59;;;-142.21;59.01
5053;BME280;2545;50.892;5.740;2023-04-09T09:43:22;56210.13;;;-142.21;56.44
5053;BME280;2545;50.892;5.740;2023-04-09T09:45:47;56188.56;;;-142.21;56.69
5053;BME280;2545;50.892;5.740;2023-04-09T09:48:13;56161.13;;;-142.21;57.53
5053;BME280;2545;50.892;5.740;2023-04-09T09:50:39;56190.53;;;-142.21;57.36
5053;BME280;2545;50.892;5.740;2023-04-09T09:53:11;56178.75;;;-142.21;56.89
5053;BME280;2545;50.892;5.740;2023-04-09T09:55:40;56155.22;;;-142.21;56.63
5053;BME280;2545;50.892;5.740;2023-04-09T09:58:18;56151.31;;;-142.21;53.79
5053;BME280;2545;50.892;5.740;2023-04-09T10:00:49;56155.22;;;-142.21;54.23
5053;BME280;2545;50.892;5.740;2023-04-09T10:03:20;56170.91;;;-142.21;54.17
5053;BME280;2545;50.892;5.740;2023-04-09T10:05:47;56192.50;;;-142.21;52.02
5053;BME280;2545;50.892;5.740;2023-04-09T10:08:13;56176.78;;;-142.21;49.07
5053;BME280;2545;50.892;5.740;2023-04-09T10:10:39;56147.38;;;-142.21;47.89
5053;BME280;2545;50.892;5.740;2023-04-09T10:13:29;56182.69;;;-142.21;47.49
5053;BME280;2545;50.892;5.740;2023-04-09T10:15:55;56159.16;;;-142.21;49.21
5053;BME280;2545;50.892;5.740;2023-04-09T10:18:21;56170.91;;;-142.21;49.28
5053;BME280;2545;50.892;5.740;2023-04-09T10:21:16;56151.31;;;-142.21;47.91
5053;BME280;2545;50.892;5.740;2023-04-09T10:23:48;56170.91;;;-142.21;46.28
5053;BME280;2545;50.892;5.740;2023-04-09T10:26:17;56182.69;;;-142.21;45.67
5053;BME280;2545;50.892;5.740;2023-04-09T10:28:42;56194.44;;;-142.21;45.49
5053;BME280;2545;50.892;5.740;2023-04-09T10:31:08;56184.66;;;-142.21;45.00
5053;BME280;2545;50.892;5.740;2023-04-09T10:33:35;56167.00;;;-142.21;44.51
5053;BME280;2545;50.892;5.740;2023-04-09T10:36:11;56137.59;;;-142.21;44.99
5053;BME280;2545;50.892;5.740;2023-04-09T10:38:37;56168.97;;;-142.21;44.83
5053;BME280;2545;50.892;5.740;2023-04-09T10:41:13;56167.00;;;-142.21;45.72
5053;BME280;2545;50.892;5.740;2023-04-09T10:43:39;56176.78;;;-142.21;46.36
5053;BME280;2545;50.892;5.740;2023-04-09T10:46:06;56163.06;;;-142.21;46.07
5053;BME280;2545;50.892;5.740;2023-04-09T10:48:33;56155.22;;;-142.21;46.17
5053;BME280;2545;50.892;5.740;2023-04-09T10:51:01;56108.16;;;-142.21;45.19
5053;BME280;2545;50.892;5.740;2023-04-09T10:53:28;56110.13;;;-142.21;43.66
5053;BME280;2545;50.892;5.740;2023-04-09T10:55:54;56129.75;;;-142.21;39.53
5053;BME280;2545;50.892;5.740;2023-04-09T10:58:20;56143.47;;;-142.21;37.32
5053;BME280;2545;50.892;5.740;2023-04-09T11:00:47;56082.69;;;-142.21;35.83
5053;BME280;2545;50.892;5.740;2023-04-09T11:03:24;56092.47;;;-142.21;36.16
5053;BME280;2545;50.892;5.740;2023-04-09T11:05:56;56094.44;;;-142.21;34.91
5053;BME280;2545;50.892;5.740;2023-04-09T11:08:22;56070.91;;;-142.21;33.28
5053;BME280;2545;50.892;5.740;2023-04-09T11:10:48;56049.34;;;-142.21;32.11
5053;BME280;2545;50.892;5.740;2023-04-09T11:13:14;56045.41;;;-142.21;32.63
5053;BME280;2545;50.892;5.740;2023-04-09T11:15:41;56067.00;;;-142.21;33.33
5053;BME280;2545;50.892;5.740;2023-04-09T11:18:06;56061.09;;;-142.21;33.97
5053;BME280;2545;50.892;5.740;2023-04-09T11:20:34;56074.84;;;-142.21;34.94
5053;BME280;2545;50.892;5.740;2023-04-09T11:23:00;56112.09;;;-142.21;34.56
5053;BME280;2545;50.892;5.740;2023-04-09T11:25:27;56016.00;;;-142.21;34.16
5053;BME280;2545;50.892;5.740;2023-04-09T11:27:53;56027.78;;;-142.21;32.04
5053;BME280;2545;50.892;5.740;2023-04-09T11:30:19;56043.47;;;-142.21;31.15
5053;BME280;2545;50.892;5.740;2023-04-09T11:32:45;56078.75;;;-142.21;31.61
5053;BME280;2545;50.892;5.740;2023-04-09T11:35:17;56055.22;;;-142.21;32.44
5053;BME280;2545;50.892;5.740;2023-04-09T11:37:44;56037.56;;;-142.21;32.43
5053;BME280;2545;50.892;5.740;2023-04-09T11:40:17;56068.94;;;-142.21;31.29
5053;BME280;2545;50.892;5.740;2023-04-09T11:42:44;56072.88;;;-142.21;31.92
5053;BME280;2545;50.892;5.740;2023-04-09T11:45:10;56068.94;;;-142.21;32.58
5053;BME280;2545;50.892;5.740;2023-04-09T11:47:38;56090.53;;;-142.21;33.79
5053;BME280;2545;50.892;5.740;2023-04-09T11:50:06;56100.31;;;-142.21;34.49
5053;BME280;2545;50.892;5.740;2023-04-09T11:52:32;56047.38;;;-142.21;32.31
5053;BME280;2545;50.892;5.740;2023-04-09T11:55:02;56023.84;;;-142.21;29.56
5053;BME280;2545;50.892;5.740;2023-04-09T11:57:44;55992.47;;;-142.21;29.27
5053;BME280;2545;50.892;5.740;2023-04-09T12:00:12;56000.31;;;-142.21;28.74
5053;BME280;2545;50.892;5.740;2023-04-09T12:02:46;55986.59;;;-142.21;28.09
5053;BME280;2545;50.892;5.740;2023-04-09T12:05:29;56037.56;;;-142.21;28.68
5053;BME280;2545;50.892;5.740;2023-04-09T12:08:00;56017.97;;;-142.21;28.47
5053;BME280;2545;50.892;5.740;2023-04-09T12:10:30;55996.41;;;-142.21;28.77
5053;BME280;2545;50.892;5.740;2023-04-09T12:13:09;56019.94;;;-142.21;30.12
5053;BME280;2545;50.892;5.740;2023-04-09T12:15:36;56067.00;;;-142.21;31.32
5053;BME280;2545;50.892;5.740;2023-04-09T12:18:02;56094.44;;;-142.21;33.40
5053;BME280;2545;50.892;5.740;2023-04-09T12:20:33;56065.03;;;-142.21;34.38
5053;BME280;2545;50.892;5.740;2023-04-09T12:23:00;56076.78;;;-142.21;33.82
5053;BME280;2545;50.892;5.740;2023-04-09T12:25:27;56070.91;;;-142.21;33.72
5053;BME280;2545;50.892;5.740;2023-04-09T12:27:54;56104.25;;;-142.21;33.50
5053;BME280;2545;50.892;5.740;2023-04-09T12:30:20;56076.78;;;-142.21;31.31
5053;BME280;2545;50.892;5.740;2023-04-09T12:32:45;56043.47;;;-142.21;30.32
5053;BME280;2545;50.892;5.740;2023-04-09T12:35:11;56049.34;;;-142.21;29.95
5053;BME280;2545;50.892;5.740;2023-04-09T12:37:36;56002.28;;;-142.21;29.28
5053;BME280;2545;50.892;5.740;2023-04-09T12:40:01;56074.84;;;-142.21;31.45
5053;BME280;2545;50.892;5.740;2023-04-09T12:42:27;56086.59;;;-142.21;31.98
5053;BME280;2545;50.892;5.740;2023-04-09T12:44:53;56094.44;;;-142.21;31.82
5053;BME280;2545;50.892;5.740;2023-04-09T12:47:18;56072.88;;;-142.21;30.53
5053;BME280;2545;50.892;5.740;2023-04-09T12:49:43;55974.84;;;-142.21;27.32
5053;BME280;2545;50.892;5.740;2023-04-09T12:52:11;55917.97;;;-142.21;25.29
5053;BME280;2545;50.892;5.740;2023-04-09T12:54:36;55914.06;;;-142.21;25.28
5053;BME280;2545;50.892;5.740;2023-04-09T12:57:03;55886.59;;;-142.21;23.98
5053;BME280;2545;50.892;5.740;2023-04-09T12:59:28;55967.00;;;-142.21;25.80